Terminal Aerodrome Forecast
Issued by NWS Charleston, WV

Current Version | Previous Version | Text Only | Print | Product List | Glossary On
Versions: 1 2 3 4 5 6 7 8 9 10 11 12 13 14 15 16 17 18 19 20 21 22 23
280
FTUS41 KRLX 142333
TAFEKN
TAF
KEKN 142333Z 1500/1524 VRB03KT P6SM BKN050
     FM150200 16008KT 3SM -SN OVC035
     FM150400 16009KT 1SM -SN BR OVC010
     FM151500 17008KT 4SM -SNRA BR OVC018=

USA.gov is the U.S. government's official web portal to all federal, state and local government web resources and services.